createdAt,value
2018-07-22T00:01:34.140Z,12.93
2018-07-22T00:04:03.150Z,11.57
2018-07-22T00:06:32.110Z,12.10
2018-07-22T00:09:01.098Z,11.50
2018-07-22T00:11:30.067Z,12.70
2018-07-22T00:13:59.126Z,12.43
2018-07-22T00:16:28.394Z,12.30
2018-07-22T00:18:57.260Z,12.07
2018-07-22T00:21:25.977Z,12.60
2018-07-22T00:23:54.765Z,12.30
2018-07-22T00:26:23.663Z,12.50
2018-07-22T00:28:52.536Z,13.27
2018-07-22T00:31:21.434Z,13.37
2018-07-22T00:33:50.451Z,13.57
2018-07-22T00:36:19.321Z,13.90
2018-07-22T00:38:48.209Z,13.10
2018-07-22T00:41:17.140Z,14.03
2018-07-22T00:43:45.925Z,13.60
2018-07-22T00:46:14.703Z,15.27
2018-07-22T00:48:43.622Z,14.00
2018-07-22T00:51:12.543Z,16.03
2018-07-22T00:53:41.626Z,15.73
2018-07-22T00:56:10.607Z,14.43
2018-07-22T00:58:39.588Z,14.40
2018-07-22T01:01:08.486Z,13.60
2018-07-22T01:03:37.165Z,16.33
2018-07-22T01:06:05.786Z,14.77
2018-07-22T01:08:34.590Z,16.20
2018-07-22T01:11:03.590Z,16.30
2018-07-22T01:13:32.593Z,15.00
2018-07-22T01:16:01.445Z,14.53
2018-07-22T01:18:30.382Z,15.40
2018-07-22T01:20:59.285Z,15.10
2018-07-22T01:23:28.154Z,15.13
2018-07-22T01:25:57.053Z,16.40
2018-07-22T01:28:26.290Z,15.13
2018-07-22T01:30:55.165Z,16.30
2018-07-22T01:33:24.073Z,15.23
2018-07-22T01:35:52.964Z,14.77
2018-07-22T01:38:21.844Z,15.00
2018-07-22T01:40:50.762Z,15.20
2018-07-22T01:43:19.687Z,15.23
2018-07-22T01:45:48.540Z,16.13
2018-07-22T01:48:17.558Z,15.23
2018-07-22T01:50:46.414Z,15.67
2018-07-22T01:53:15.295Z,14.90
2018-07-22T01:55:44.173Z,13.60
2018-07-22T01:58:13.086Z,15.30
2018-07-22T02:00:41.982Z,14.63
2018-07-22T02:03:10.890Z,15.60
2018-07-22T02:05:39.771Z,15.00
2018-07-22T02:08:08.704Z,15.07
2018-07-22T02:10:37.650Z,15.07
2018-07-22T02:13:06.580Z,14.90
2018-07-22T02:15:35.495Z,14.50
2018-07-22T02:18:04.451Z,15.30
2018-07-22T02:20:33.357Z,15.70
2018-07-22T02:23:02.288Z,15.13
2018-07-22T02:25:31.204Z,16.20
2018-07-22T02:28:00.102Z,15.33
2018-07-22T02:30:28.989Z,15.83
2018-07-22T02:32:57.943Z,15.47
2018-07-22T02:35:27.081Z,16.27
2018-07-22T02:37:55.778Z,16.57
2018-07-22T02:40:24.557Z,15.97
2018-07-22T02:42:53.779Z,17.67
2018-07-22T02:45:22.708Z,16.83
2018-07-22T02:47:51.638Z,16.60
2018-07-22T02:50:20.525Z,18.10
2018-07-22T02:52:49.511Z,17.33
2018-07-22T02:55:18.237Z,17.50
2018-07-22T02:57:47.010Z,16.57
2018-07-22T03:00:15.902Z,17.10
2018-07-22T03:02:44.793Z,16.13
2018-07-22T03:05:13.796Z,17.30
2018-07-22T03:07:42.677Z,17.77
2018-07-22T03:10:11.594Z,17.43
2018-07-22T03:12:40.469Z,16.70
2018-07-22T03:15:09.341Z,15.90
2018-07-22T03:17:38.276Z,16.43
2018-07-22T03:20:07.195Z,17.53
2018-07-22T03:22:36.433Z,17.60
2018-07-22T03:25:05.998Z,16.53
2018-07-22T03:27:34.951Z,16.80
2018-07-22T03:30:03.878Z,16.97
2018-07-22T03:32:32.764Z,15.43
2018-07-22T03:35:01.807Z,15.83
2018-07-22T03:37:30.694Z,16.50
2018-07-22T03:39:59.602Z,17.33
2018-07-22T03:42:28.501Z,17.50
2018-07-22T03:44:57.197Z,17.17
2018-07-22T03:47:26.029Z,18.20
2018-07-22T03:49:54.891Z,17.03
2018-07-22T03:52:24.698Z,18.53
2018-07-22T03:54:53.575Z,17.60
2018-07-22T03:57:22.490Z,17.10
2018-07-22T03:59:51.409Z,18.77
2018-07-22T04:02:20.340Z,16.77
2018-07-22T04:04:49.072Z,18.87
2018-07-22T04:07:17.847Z,18.83
2018-07-22T04:09:46.744Z,17.90
2018-07-22T04:12:15.624Z,20.67
2018-07-22T04:14:44.571Z,18.23
2018-07-22T04:17:13.842Z,20.40
2018-07-22T04:19:42.758Z,20.63
2018-07-22T04:22:11.852Z,20.43
2018-07-22T04:24:40.748Z,22.00
2018-07-22T04:27:09.686Z,22.33
2018-07-22T04:29:38.661Z,21.10
2018-07-22T04:32:07.614Z,21.70
2018-07-22T04:34:36.658Z,20.80
2018-07-22T04:37:05.550Z,20.73
2018-07-22T04:39:34.430Z,19.37
2018-07-22T04:42:03.334Z,21.53
2018-07-22T04:44:32.241Z,20.37
2018-07-22T04:47:01.101Z,20.10
2018-07-22T04:49:30.018Z,21.43
2018-07-22T04:51:59.774Z,22.17
2018-07-22T04:54:28.630Z,20.13
2018-07-22T04:56:57.282Z,20.47
2018-07-22T04:59:26.702Z,19.77
2018-07-22T05:01:55.600Z,19.57
2018-07-22T05:04:24.546Z,19.13
2018-07-22T05:06:53.460Z,19.13
2018-07-22T05:09:22.433Z,19.03
2018-07-22T05:11:51.345Z,19.10
2018-07-22T05:14:20.529Z,18.80
2018-07-22T05:16:49.425Z,20.17
2018-07-22T05:19:18.403Z,17.80
2018-07-22T05:21:47.338Z,17.83
2018-07-22T05:24:16.199Z,15.70
2018-07-22T05:26:45.102Z,17.27
2018-07-22T05:29:14.106Z,17.27
2018-07-22T05:31:43.021Z,15.30
2018-07-22T05:34:11.883Z,14.77
2018-07-22T05:36:40.649Z,14.73
2018-07-22T05:39:11.407Z,14.27
2018-07-22T05:41:41.313Z,12.97
2018-07-22T05:44:10.204Z,14.57
2018-07-22T05:46:39.125Z,13.13
2018-07-22T05:49:07.812Z,13.80
2018-07-22T05:51:36.730Z,12.63
2018-07-22T05:54:06.040Z,13.70
2018-07-22T05:56:35.166Z,13.10
2018-07-22T05:59:04.066Z,11.23
2018-07-22T06:01:32.978Z,12.73
2018-07-22T06:04:01.879Z,11.40
2018-07-22T06:06:30.793Z,12.10
2018-07-22T06:08:59.773Z,11.53
2018-07-22T06:11:28.994Z,11.90
2018-07-22T06:13:58.084Z,11.70
2018-07-22T06:16:28.222Z,10.47
2018-07-22T06:18:57.063Z,10.43
2018-07-22T06:21:25.940Z,10.10
2018-07-22T06:23:55.066Z,10.97
2018-07-22T06:26:24.011Z,10.60
2018-07-22T06:28:52.887Z,9.97
2018-07-22T06:31:21.660Z,11.10
2018-07-22T06:33:50.427Z,9.37
2018-07-22T06:36:19.572Z,9.60
2018-07-22T06:38:48.565Z,9.33
2018-07-22T06:41:17.510Z,9.07
2018-07-22T06:43:46.410Z,8.20
2018-07-22T06:46:15.351Z,9.57
2018-07-22T06:48:44.238Z,9.13
2018-07-22T06:51:13.157Z,9.37
2018-07-22T06:53:42.038Z,9.47
2018-07-22T06:56:10.946Z,8.40
2018-07-22T06:58:39.853Z,8.70
2018-07-22T07:01:09.326Z,8.17
2018-07-22T07:03:38.223Z,8.10
2018-07-22T07:06:07.150Z,7.77
2018-07-22T07:08:36.071Z,7.70
2018-07-22T07:11:05.092Z,7.17
2018-07-22T07:13:33.950Z,7.37
2018-07-22T07:16:02.818Z,6.43
2018-07-22T07:18:31.736Z,7.47
2018-07-22T07:21:00.629Z,6.77
2018-07-22T07:23:29.478Z,5.63
2018-07-22T07:25:58.376Z,6.33
2018-07-22T07:28:27.272Z,7.60
2018-07-22T07:30:56.144Z,6.03
2018-07-22T07:33:24.798Z,6.47
2018-07-22T07:35:53.574Z,6.33
2018-07-22T07:38:22.481Z,6.67
2018-07-22T07:40:51.362Z,5.50
2018-07-22T07:43:20.292Z,5.00
2018-07-22T07:45:49.185Z,5.23
2018-07-22T07:48:18.171Z,5.20
2018-07-22T07:50:47.117Z,5.30
2018-07-22T07:53:16.203Z,4.70
2018-07-22T07:55:45.082Z,4.30
2018-07-22T07:58:13.972Z,4.40
2018-07-22T08:00:43.019Z,5.43
2018-07-22T08:03:11.873Z,4.60
2018-07-22T08:05:40.761Z,4.70
2018-07-22T08:08:09.646Z,4.40
2018-07-22T08:10:38.566Z,4.80
2018-07-22T08:13:07.483Z,5.40
2018-07-22T08:15:36.390Z,5.00
2018-07-22T08:18:05.511Z,4.40
2018-07-22T08:20:34.767Z,4.87
2018-07-22T08:23:03.641Z,4.53
2018-07-22T08:25:32.530Z,4.40
2018-07-22T08:28:01.442Z,4.63
2018-07-22T08:30:30.356Z,4.13
2018-07-22T08:32:59.177Z,4.70
2018-07-22T08:35:28.192Z,4.20
2018-07-22T08:37:57.094Z,4.23
2018-07-22T08:40:25.978Z,4.20
2018-07-22T08:42:54.878Z,3.87
2018-07-22T08:45:23.812Z,4.10
2018-07-22T08:47:52.717Z,4.30
2018-07-22T08:50:21.604Z,4.57
2018-07-22T08:52:50.660Z,4.17
2018-07-22T08:55:20.146Z,4.27
2018-07-22T08:57:49.052Z,5.30
2018-07-22T09:00:17.921Z,4.27
2018-07-22T09:02:46.789Z,4.27
2018-07-22T09:05:15.672Z,4.50
2018-07-22T09:07:44.518Z,4.13
2018-07-22T09:10:13.683Z,4.90
2018-07-22T09:12:42.634Z,4.63
2018-07-22T09:15:11.500Z,4.27
2018-07-22T09:17:40.365Z,5.17
2018-07-22T09:20:09.242Z,5.20
2018-07-22T09:22:38.146Z,5.40
2018-07-22T09:25:07.156Z,5.40
2018-07-22T09:27:36.026Z,4.47
2018-07-22T09:30:05.055Z,5.00
2018-07-22T09:32:33.921Z,5.10
2018-07-22T09:35:02.902Z,5.60
2018-07-22T09:37:31.789Z,5.67
2018-07-22T09:40:00.745Z,5.40
2018-07-22T09:42:29.604Z,5.67
2018-07-22T09:44:58.506Z,5.63
2018-07-22T09:47:27.380Z,5.33
2018-07-22T09:49:56.453Z,5.60
2018-07-22T09:52:25.314Z,6.20
2018-07-22T09:54:54.217Z,5.40
2018-07-22T09:57:23.115Z,5.77
2018-07-22T09:59:51.981Z,5.00
2018-07-22T10:02:20.966Z,5.60
2018-07-22T10:04:49.899Z,5.90
2018-07-22T10:07:18.757Z,5.60
2018-07-22T10:09:47.636Z,5.77
2018-07-22T10:12:16.526Z,5.53
2018-07-22T10:14:45.609Z,6.40
2018-07-22T10:17:14.378Z,6.50
2018-07-22T10:19:43.397Z,6.57
2018-07-22T10:22:12.353Z,5.93
2018-07-22T10:24:41.457Z,6.33
2018-07-22T10:27:10.443Z,5.73
2018-07-22T10:29:39.125Z,6.00
2018-07-22T10:32:08.153Z,6.27
2018-07-22T10:34:37.146Z,5.73
2018-07-22T10:37:06.203Z,5.77
2018-07-22T10:39:35.213Z,5.53
2018-07-22T10:42:04.131Z,5.27
2018-07-22T10:44:33.177Z,6.17
2018-07-22T10:47:02.087Z,5.87
2018-07-22T10:49:31.002Z,6.03
2018-07-22T10:51:59.882Z,6.13
2018-07-22T10:54:28.781Z,5.73
2018-07-22T10:56:57.719Z,6.30
2018-07-22T10:59:26.651Z,6.70
2018-07-22T11:01:55.527Z,6.60
2018-07-22T11:04:24.395Z,6.00
2018-07-22T11:06:53.305Z,6.70
2018-07-22T11:09:22.245Z,6.50
2018-07-22T11:11:51.152Z,6.33
2018-07-22T11:14:20.748Z,5.90
2018-07-22T11:16:49.955Z,5.60
2018-07-22T11:19:18.818Z,6.30
2018-07-22T11:21:48.031Z,5.63
2018-07-22T11:24:17.885Z,5.47
2018-07-22T11:26:46.827Z,5.63
2018-07-22T11:29:16.166Z,5.90
2018-07-22T11:31:45.077Z,5.73
2018-07-22T11:34:13.969Z,6.33
2018-07-22T11:36:42.992Z,6.40
2018-07-22T11:39:12.554Z,7.03
2018-07-22T11:41:41.540Z,6.90
2018-07-22T11:44:10.635Z,7.07
2018-07-22T11:46:40.064Z,6.60
2018-07-22T11:49:09.214Z,6.87
2018-07-22T11:51:38.740Z,7.50
2018-07-22T11:54:08.128Z,7.10
2018-07-22T11:56:37.085Z,7.33
2018-07-22T11:59:05.956Z,7.17
2018-07-22T12:01:35.184Z,7.17
2018-07-22T12:04:04.237Z,6.80
2018-07-22T12:06:33.170Z,7.40
2018-07-22T12:09:02.092Z,7.60
2018-07-22T12:11:31.097Z,7.30
2018-07-22T12:14:00.035Z,7.37
2018-07-22T12:16:29.052Z,7.27
2018-07-22T12:18:57.905Z,7.10
2018-07-22T12:21:27.378Z,6.43
2018-07-22T12:23:56.202Z,6.30
2018-07-22T12:26:25.191Z,6.20
2018-07-22T12:28:54.077Z,5.90
2018-07-22T12:31:23.077Z,6.60
2018-07-22T12:33:52.174Z,6.07
2018-07-22T12:36:21.157Z,6.30
2018-07-22T12:38:50.154Z,5.67
2018-07-22T12:41:19.175Z,6.00
2018-07-22T12:43:48.047Z,5.53
2018-07-22T12:46:17.045Z,6.30
2018-07-22T12:48:45.938Z,5.57
2018-07-22T12:51:14.914Z,5.80
2018-07-22T12:53:43.914Z,5.40
2018-07-22T12:56:12.899Z,5.90
2018-07-22T12:58:42.000Z,5.30
2018-07-22T13:01:10.940Z,6.10
2018-07-22T13:03:39.808Z,5.27
2018-07-22T13:06:08.711Z,5.53
2018-07-22T13:08:37.622Z,5.30
2018-07-22T13:11:06.653Z,6.30
2018-07-22T13:13:35.670Z,6.23
2018-07-22T13:16:04.657Z,6.10
2018-07-22T13:18:33.694Z,6.50
2018-07-22T13:21:02.601Z,6.30
2018-07-22T13:23:31.395Z,6.43
2018-07-22T13:26:00.271Z,6.20
2018-07-22T13:28:29.252Z,6.87
2018-07-22T13:30:58.249Z,6.50
2018-07-22T13:33:27.240Z,6.80
2018-07-22T13:35:56.116Z,6.60
2018-07-22T13:38:25.046Z,7.30
2018-07-22T13:40:53.908Z,7.03
2018-07-22T13:43:22.906Z,7.47
2018-07-22T13:45:51.785Z,6.13
2018-07-22T13:48:20.853Z,7.00
2018-07-22T13:50:49.775Z,6.40
2018-07-22T13:53:18.657Z,7.67
2018-07-22T13:55:47.589Z,6.53
2018-07-22T13:58:16.477Z,6.67
2018-07-22T14:00:45.397Z,7.80
2018-07-22T14:03:14.432Z,7.47
2018-07-22T14:05:43.506Z,7.10
2018-07-22T14:08:12.583Z,6.83
2018-07-22T14:10:41.453Z,7.37
2018-07-22T14:13:10.601Z,7.13
2018-07-22T14:15:39.686Z,7.13
2018-07-22T14:18:08.722Z,7.50
2018-07-22T14:20:37.868Z,7.33
2018-07-22T14:23:06.749Z,7.90
2018-07-22T14:25:36.349Z,6.43
2018-07-22T14:28:05.440Z,6.63
2018-07-22T14:30:34.693Z,6.97
2018-07-22T14:33:03.794Z,6.80
2018-07-22T14:35:32.929Z,7.63
2018-07-22T14:38:02.031Z,6.80
2018-07-22T14:40:31.311Z,6.93
2018-07-22T14:43:00.365Z,6.50
2018-07-22T14:45:29.485Z,6.63
2018-07-22T14:47:58.538Z,7.90
2018-07-22T14:50:27.905Z,8.10
2018-07-22T14:52:56.976Z,7.90
2018-07-22T14:55:26.078Z,7.90
2018-07-22T14:57:55.308Z,6.63
2018-07-22T15:00:24.430Z,8.30
2018-07-22T15:02:53.738Z,7.43
2018-07-22T15:05:22.844Z,7.43
2018-07-22T15:07:51.992Z,7.27
2018-07-22T15:10:21.558Z,8.13
2018-07-22T15:12:50.610Z,6.80
2018-07-22T15:15:20.256Z,7.60
2018-07-22T15:17:49.848Z,7.50
2018-07-22T15:20:19.433Z,7.37
2018-07-22T15:22:48.445Z,7.70
2018-07-22T15:25:17.298Z,7.20
2018-07-22T15:27:47.424Z,8.40
2018-07-22T15:30:16.546Z,8.07
2018-07-22T15:32:45.531Z,7.50
2018-07-22T15:35:14.550Z,7.90
2018-07-22T15:37:44.771Z,7.93
2018-07-22T15:40:13.918Z,7.73
2018-07-22T15:42:43.338Z,7.63
2018-07-22T15:45:12.572Z,8.20
2018-07-22T15:47:43.603Z,8.03
2018-07-22T15:50:12.994Z,7.60
2018-07-22T15:52:42.318Z,7.90
2018-07-22T15:55:11.230Z,7.80
2018-07-22T15:57:40.199Z,7.23
2018-07-22T16:00:09.839Z,6.90
2018-07-22T16:02:39.202Z,7.50
2018-07-22T16:05:08.238Z,7.40
2018-07-22T16:07:37.437Z,7.60
2018-07-22T16:10:06.508Z,7.43
2018-07-22T16:12:35.913Z,7.27
2018-07-22T16:15:05.599Z,7.47
2018-07-22T16:17:34.324Z,8.00
2018-07-22T16:20:03.150Z,7.10
2018-07-22T16:22:32.042Z,7.67
2018-07-22T16:25:00.986Z,7.53
2018-07-22T16:27:29.988Z,7.33
2018-07-22T16:29:58.999Z,8.00
2018-07-22T16:32:28.047Z,7.60
2018-07-22T16:34:57.374Z,7.00
2018-07-22T16:37:26.709Z,7.00
2018-07-22T16:39:56.299Z,6.50
2018-07-22T16:42:25.556Z,7.30
2018-07-22T16:44:55.229Z,7.10
2018-07-22T16:47:25.400Z,7.13
2018-07-22T16:49:54.313Z,7.60
2018-07-22T16:52:23.221Z,7.00
2018-07-22T16:54:52.169Z,6.60
2018-07-22T16:57:21.226Z,6.70
2018-07-22T16:59:50.108Z,7.10
2018-07-22T17:02:19.100Z,6.43
2018-07-22T17:04:47.994Z,6.27
2018-07-22T17:07:17.015Z,6.77
2018-07-22T17:09:45.866Z,7.30
2018-07-22T17:12:14.966Z,6.70
2018-07-22T17:14:43.945Z,6.60
2018-07-22T17:17:12.953Z,7.00
2018-07-22T17:19:42.887Z,6.67
2018-07-22T17:22:11.847Z,7.00
2018-07-22T17:24:40.829Z,7.30
2018-07-22T17:27:09.824Z,7.30
2018-07-22T17:29:38.834Z,8.00
2018-07-22T17:32:07.829Z,7.77
2018-07-22T17:34:36.910Z,7.87
2018-07-22T17:37:05.628Z,7.43
2018-07-22T17:39:34.466Z,7.80
2018-07-22T17:42:03.637Z,7.87
2018-07-22T17:44:32.909Z,7.00
2018-07-22T17:47:03.416Z,7.73
2018-07-22T17:49:32.555Z,7.83
2018-07-22T17:52:01.591Z,7.80
2018-07-22T17:54:30.637Z,6.87
2018-07-22T17:56:59.951Z,7.00
2018-07-22T17:59:29.074Z,6.53
2018-07-22T18:01:58.092Z,6.60
2018-07-22T18:04:27.276Z,7.00
2018-07-22T18:06:56.336Z,6.70
2018-07-22T18:09:25.371Z,5.90
2018-07-22T18:11:54.567Z,5.97
2018-07-22T18:14:23.662Z,6.40
2018-07-22T18:16:52.713Z,5.33
2018-07-22T18:19:21.963Z,5.20
2018-07-22T18:21:51.517Z,5.73
2018-07-22T18:24:20.394Z,4.87
2018-07-22T18:26:49.281Z,5.33
2018-07-22T18:29:18.402Z,5.80
2018-07-22T18:31:47.271Z,5.30
2018-07-22T18:34:16.178Z,4.53
2018-07-22T18:36:45.165Z,4.30
2018-07-22T18:39:13.885Z,5.30
2018-07-22T18:41:42.485Z,4.60
2018-07-22T18:44:11.340Z,4.33
2018-07-22T18:46:40.220Z,4.53
2018-07-22T18:49:08.969Z,4.50
2018-07-22T18:51:37.809Z,4.20
2018-07-22T18:54:06.777Z,4.50
2018-07-22T18:56:35.730Z,4.23
2018-07-22T18:59:04.752Z,4.60
2018-07-22T19:01:33.663Z,4.27
2018-07-22T19:04:02.592Z,4.10
2018-07-22T19:06:31.517Z,4.37
2018-07-22T19:09:00.430Z,4.60
2018-07-22T19:11:29.591Z,4.10
2018-07-22T19:13:58.530Z,3.77
2018-07-22T19:16:27.444Z,4.10
2018-07-22T19:18:56.596Z,4.00
2018-07-22T19:21:25.559Z,4.03
2018-07-22T19:23:54.535Z,4.10
2018-07-22T19:26:23.567Z,4.20
2018-07-22T19:28:52.699Z,3.70
2018-07-22T19:31:21.630Z,3.90
2018-07-22T19:33:50.489Z,3.67
2018-07-22T19:36:19.418Z,3.90
2018-07-22T19:38:48.540Z,4.03
2018-07-22T19:41:17.605Z,4.27
2018-07-22T19:43:46.538Z,4.43
2018-07-22T19:46:15.548Z,4.23
2018-07-22T19:48:44.504Z,4.20
2018-07-22T19:51:13.521Z,4.27
2018-07-22T19:53:42.426Z,4.40
2018-07-22T19:56:11.333Z,4.60
2018-07-22T19:58:40.402Z,4.77
2018-07-22T20:01:09.383Z,3.80
2018-07-22T20:03:38.641Z,4.47
2018-07-22T20:06:07.202Z,5.00
2018-07-22T20:08:36.098Z,4.43
2018-07-22T20:11:05.005Z,4.00
2018-07-22T20:13:33.902Z,5.10
2018-07-22T20:16:02.886Z,4.80
2018-07-22T20:18:31.596Z,4.60
2018-07-22T20:21:00.157Z,4.30
2018-07-22T20:23:29.045Z,4.97
2018-07-22T20:25:58.039Z,5.40
2018-07-22T20:28:27.026Z,5.00
2018-07-22T20:30:55.932Z,4.50
2018-07-22T20:33:24.917Z,4.30
2018-07-22T20:35:53.876Z,4.53
2018-07-22T20:38:23.092Z,4.57
2018-07-22T20:40:52.070Z,4.80
2018-07-22T20:43:20.969Z,4.70
2018-07-22T20:45:49.853Z,4.90
2018-07-22T20:48:18.540Z,4.70
2018-07-22T20:50:47.330Z,4.30
2018-07-22T20:53:16.228Z,5.30
2018-07-22T20:55:45.230Z,4.50
2018-07-22T20:58:14.222Z,4.80
2018-07-22T21:00:43.209Z,4.60
2018-07-22T21:03:12.225Z,4.77
2018-07-22T21:05:41.095Z,4.47
2018-07-22T21:08:10.003Z,4.77
2018-07-22T21:10:38.827Z,5.40
2018-07-22T21:13:22.572Z,5.30
2018-07-22T21:15:51.627Z,5.57
2018-07-22T21:18:20.491Z,6.00
2018-07-22T21:20:49.379Z,5.77
2018-07-22T21:23:18.370Z,5.17
2018-07-22T21:25:47.213Z,5.00
2018-07-22T21:28:16.125Z,5.50
2018-07-22T21:30:45.681Z,5.50
2018-07-22T21:33:14.569Z,5.37
2018-07-22T21:35:43.496Z,5.37
2018-07-22T21:38:12.160Z,5.90
2018-07-22T21:40:40.913Z,5.33
2018-07-22T21:43:10.115Z,5.90
2018-07-22T21:45:39.000Z,6.23
2018-07-22T21:48:07.945Z,6.13
2018-07-22T21:50:37.105Z,6.10
2018-07-22T21:53:06.002Z,5.90
2018-07-22T21:55:35.513Z,5.93
2018-07-22T21:58:04.397Z,5.63
2018-07-22T22:00:38.508Z,5.60
2018-07-22T22:03:07.746Z,5.07
2018-07-22T22:05:36.612Z,5.87
2018-07-22T22:08:05.617Z,5.40
2018-07-22T22:10:34.501Z,5.43
2018-07-22T22:13:03.443Z,6.27
2018-07-22T22:15:33.498Z,6.20
2018-07-22T22:18:04.277Z,6.50
2018-07-22T22:20:33.561Z,6.40
2018-07-22T22:23:02.650Z,5.90
2018-07-22T22:25:31.593Z,6.10
2018-07-22T22:28:00.709Z,5.90
2018-07-22T22:30:29.586Z,6.40
2018-07-22T22:32:58.520Z,6.13
2018-07-22T22:35:27.405Z,5.77
2018-07-22T22:37:56.293Z,6.07
2018-07-22T22:40:25.158Z,6.20
2018-07-22T22:42:54.041Z,6.23
2018-07-22T22:45:22.953Z,6.50
2018-07-22T22:47:51.799Z,7.10
2018-07-22T22:50:20.669Z,6.73
2018-07-22T22:52:49.612Z,6.73
2018-07-22T22:55:18.528Z,6.73
2018-07-22T22:57:58.961Z,6.67
2018-07-22T23:00:27.826Z,7.87
2018-07-22T23:02:56.729Z,7.60
2018-07-22T23:05:27.215Z,7.00
2018-07-22T23:07:56.078Z,7.90
2018-07-22T23:10:25.053Z,7.00
2018-07-22T23:12:53.940Z,6.90
2018-07-22T23:15:22.932Z,7.00
2018-07-22T23:17:51.801Z,6.60
2018-07-22T23:20:20.692Z,7.13
2018-07-22T23:22:49.674Z,6.93
2018-07-22T23:25:18.554Z,7.53
2018-07-22T23:27:47.432Z,7.33
2018-07-22T23:30:16.314Z,7.17
2018-07-22T23:32:45.217Z,7.63
2018-07-22T23:35:14.864Z,7.60
2018-07-22T23:37:44.620Z,7.63
2018-07-22T23:40:13.577Z,7.30
2018-07-22T23:42:42.641Z,8.20
2018-07-22T23:45:11.560Z,7.97
2018-07-22T23:47:40.580Z,8.50
2018-07-22T23:50:09.664Z,8.40
2018-07-22T23:52:38.740Z,8.37
2018-07-22T23:55:07.580Z,7.70
2018-07-22T23:57:36.764Z,8.40
